Time;durP1;ratioP1;P1;durP2;ratioP2;P2;SDS_P1;SDS_P2;PMS_P1;PMS_P2;Temp;Humidity;BMP_temperature;BMP_pressure;BME280_temperature;BME280_humidity;BME280_pressure;Samples;Min_cycle;Max_cycle;Signal;HPM_P1;HPM_P2
2023/09/16 00:02:39;;;;;;;15.38;9.77;;;13.10;99.90;;;;;;6189137;23;20099;-88
2023/09/16 00:05:05;;;;;;;16.38;10.52;;;13.10;99.90;;;;;;6189042;23;20016;-88
2023/09/16 00:07:43;;;;;;;17.08;10.52;;;13.10;99.90;;;;;;6190431;23;20017;-88
2023/09/16 00:10:09;;;;;;;16.50;11.25;;;13.20;99.90;;;;;;6189997;23;20021;-88
2023/09/16 00:12:35;;;;;;;15.30;10.25;;;14.30;99.90;;;;;;6187795;23;20009;-88
2023/09/16 00:15:00;;;;;;;15.60;9.95;;;13.20;99.90;;;;;;6189065;23;20020;-89
2023/09/16 00:17:29;;;;;;;16.50;10.85;;;14.10;99.90;;;;;;6189420;23;20016;-88
2023/09/16 00:20:16;;;;;;;16.13;9.80;;;13.20;99.90;;;;;;6188444;23;20112;-88
2023/09/16 00:22:57;;;;;;;17.85;9.98;;;13.30;99.90;;;;;;6189003;23;20048;-89
2023/09/16 00:25:23;;;;;;;18.35;10.52;;;13.20;99.90;;;;;;6189206;23;20020;-88
2023/09/16 00:27:58;;;;;;;15.23;9.60;;;13.20;99.90;;;;;;6188977;23;20091;-88
2023/09/16 00:30:24;;;;;;;16.33;10.60;;;13.30;99.90;;;;;;6189603;23;20020;-89
2023/09/16 00:32:59;;;;;;;16.70;10.73;;;13.30;99.90;;;;;;6187628;23;20036;-88
2023/09/16 00:35:50;;;;;;;15.15;10.02;;;13.30;99.90;;;;;;6183447;23;20027;-88
2023/09/16 00:38:16;;;;;;;15.82;10.45;;;13.30;99.90;;;;;;6184513;23;20466;-89
2023/09/16 00:41:00;;;;;;;15.25;10.07;;;13.30;99.90;;;;;;6181372;23;20020;-88
2023/09/16 00:43:28;;;;;;;15.48;10.02;;;13.90;99.90;;;;;;6184568;23;20013;-88
2023/09/16 00:45:59;;;;;;;16.73;11.50;;;13.30;99.90;;;;;;6182400;23;20025;-89
2023/09/16 00:48:26;;;;;;;16.10;10.85;;;14.50;99.90;;;;;;6183810;23;20036;-89
2023/09/16 00:50:52;;;;;;;15.18;10.20;;;13.30;99.90;;;;;;6183765;23;20076;-89
2023/09/16 00:53:20;;;;;;;18.52;11.27;;;13.20;99.90;;;;;;6184808;23;20021;-89
2023/09/16 00:55:50;;;;;;;16.15;10.80;;;13.30;99.90;;;;;;6183664;23;20099;-88
2023/09/16 00:58:20;;;;;;;17.13;10.13;;;13.20;99.90;;;;;;6184957;23;20017;-89
2023/09/16 01:00:49;;;;;;;16.40;10.05;;;13.30;99.90;;;;;;6182735;23;20017;-88
2023/09/16 01:03:19;;;;;;;15.30;10.45;;;13.20;99.90;;;;;;6184147;23;20025;-88
2023/09/16 01:05:49;;;;;;;17.55;11.13;;;13.30;99.90;;;;;;6186706;23;20016;-86
2023/09/16 01:08:22;;;;;;;14.35;9.85;;;13.80;99.90;;;;;;6188055;23;20021;-86
2023/09/16 01:10:54;;;;;;;16.27;11.03;;;13.10;99.90;;;;;;6188326;23;20092;-86
2023/09/16 01:13:23;;;;;;;17.60;11.95;;;13.90;99.90;;;;;;6183368;23;20279;-86
2023/09/16 01:19:28;;;;;;;17.08;11.32;;;13.30;99.90;;;;;;6184132;23;20021;-88
2023/09/16 01:21:54;;;;;;;16.00;11.10;;;13.10;99.90;;;;;;6183458;23;20031;-88
2023/09/16 01:24:24;;;;;;;19.92;12.43;;;13.10;99.90;;;;;;6187997;23;20040;-88
2023/09/16 01:26:54;;;;;;;18.83;12.00;;;13.00;99.90;;;;;;6184129;23;20017;-88
2023/09/16 01:29:21;;;;;;;20.25;12.02;;;13.60;99.90;;;;;;6184237;23;20021;-88
2023/09/16 01:32:53;;;;;;;17.67;11.82;;;13.00;99.90;;;;;;6182960;23;20013;-89
2023/09/16 01:36:23;;;;;;;19.08;12.85;;;12.70;99.90;;;;;;6182479;23;20021;-89
2023/09/16 01:38:58;;;;;;;18.42;12.43;;;13.30;99.90;;;;;;6170042;23;20024;-89
2023/09/16 01:41:25;;;;;;;20.95;12.75;;;13.00;99.90;;;;;;6180905;23;20023;-88
2023/09/16 01:43:54;;;;;;;17.67;12.45;;;13.00;99.90;;;;;;6185838;22;20020;-88
2023/09/16 01:47:25;;;;;;;18.23;12.23;;;13.10;99.90;;;;;;6160746;23;20021;-89
2023/09/16 01:50:55;;;;;;;17.35;12.10;;;13.10;99.90;;;;;;6156513;23;20074;-88
2023/09/16 01:54:24;;;;;;;17.10;11.75;;;12.60;99.90;;;;;;6157503;23;20552;-89
2023/09/16 01:56:55;;;;;;;15.85;11.05;;;12.80;99.90;;;;;;6186922;23;20016;-89
2023/09/16 01:59:24;;;;;;;17.08;11.82;;;12.90;99.90;;;;;;6188093;23;20348;-88
2023/09/16 02:02:05;;;;;;;17.52;11.57;;;12.90;99.90;;;;;;6187054;23;20020;-88
2023/09/16 02:04:30;;;;;;;17.65;11.93;;;12.90;99.90;;;;;;6204005;23;20021;-88
2023/09/16 02:06:56;;;;;;;18.58;11.88;;;12.90;99.90;;;;;;6207628;23;20012;-89
2023/09/16 02:09:25;;;;;;;17.45;11.75;;;14.10;99.90;;;;;;6188504;23;20018;-89
2023/09/16 02:11:56;;;;;;;17.42;11.50;;;12.90;99.90;;;;;;6214723;23;20048;-88
2023/09/16 02:14:28;;;;;;;21.80;12.40;;;12.90;99.90;;;;;;6188279;23;20024;-88
2023/09/16 02:16:54;;;;;;;17.63;11.90;;;14.10;99.90;;;;;;6188249;23;20016;-88
2023/09/16 02:19:20;;;;;;;19.05;13.10;;;12.90;99.90;;;;;;6188029;23;20071;-89
2023/09/16 02:21:48;;;;;;;20.27;12.63;;;12.80;99.90;;;;;;6188253;23;20017;-89
2023/09/16 02:24:17;;;;;;;17.10;12.35;;;12.80;99.90;;;;;;6188455;23;20063;-88
2023/09/16 02:26:46;;;;;;;18.27;12.70;;;12.70;99.90;;;;;;6187335;23;20020;-88
2023/09/16 02:29:11;;;;;;;18.10;12.75;;;13.70;99.90;;;;;;6188684;23;20051;-89
2023/09/16 02:31:37;;;;;;;18.25;12.93;;;13.30;99.90;;;;;;6188081;23;20037;-88
2023/09/16 02:34:11;;;;;;;21.20;13.18;;;12.80;99.90;;;;;;6187544;23;20023;-89
2023/09/16 02:36:37;;;;;;;21.00;14.25;;;12.10;99.90;;;;;;6188337;23;20027;-88
2023/09/16 02:39:03;;;;;;;19.40;12.80;;;13.50;99.90;;;;;;6187179;23;20092;-88
2023/09/16 02:41:32;;;;;;;19.55;13.65;;;12.50;99.90;;;;;;6188103;23;20388;-89
2023/09/16 02:44:04;;;;;;;18.10;12.75;;;12.50;99.90;;;;;;6188023;23;20032;-88
2023/09/16 02:46:36;;;;;;;19.95;13.82;;;12.40;99.90;;;;;;6187220;23;20017;-89
2023/09/16 02:49:05;;;;;;;18.70;13.52;;;13.40;99.90;;;;;;6188065;23;20017;-89
2023/09/16 02:51:32;;;;;;;19.35;13.40;;;12.40;99.90;;;;;;6187774;23;20499;-88
2023/09/16 02:54:02;;;;;;;18.95;13.50;;;13.30;99.90;;;;;;6209291;23;20021;-89
2023/09/16 02:56:31;;;;;;;20.58;14.00;;;12.60;99.90;;;;;;6188123;23;20088;-89
2023/09/16 02:59:03;;;;;;;20.63;14.27;;;12.30;99.90;;;;;;6188382;23;20438;-89
2023/09/16 03:01:44;;;;;;;20.00;13.93;;;12.20;99.90;;;;;;6186595;23;20054;-89
2023/09/16 03:04:15;;;;;;;22.40;14.57;;;13.30;99.90;;;;;;6188497;23;20484;-89
2023/09/16 03:10:00;;;;;;;21.23;13.70;;;12.20;99.90;;;;;;6129366;23;20402;-89
2023/09/16 03:12:27;;;;;;;19.52;13.15;;;11.70;99.90;;;;;;6129006;23;20323;-88
2023/09/16 03:14:56;;;;;;;20.10;13.75;;;12.10;99.90;;;;;;6130998;23;20100;-89
2023/09/16 03:17:29;;;;;;;18.58;12.88;;;12.20;99.90;;;;;;6129493;23;20021;-89
2023/09/16 03:19:57;;;;;;;18.33;12.63;;;12.10;99.90;;;;;;6128744;23;20022;-88
2023/09/16 03:22:44;;;;;;;17.23;12.45;;;12.00;99.90;;;;;;6127961;23;20093;-89
2023/09/16 03:25:09;;;;;;;17.90;13.05;;;12.90;99.90;;;;;;6129310;23;20020;-88
2023/09/16 03:27:38;;;;;;;17.95;12.63;;;13.30;99.90;;;;;;6128543;23;20026;-88
2023/09/16 03:30:10;;;;;;;18.98;12.95;;;11.90;99.90;;;;;;6128138;23;20029;-88
2023/09/16 03:32:39;;;;;;;20.05;12.90;;;11.90;99.90;;;;;;6128457;23;20028;-88
2023/09/16 03:35:11;;;;;;;18.95;12.68;;;11.90;99.90;;;;;;6129911;23;20014;-89
2023/09/16 03:37:43;;;;;;;17.63;13.15;;;11.80;99.90;;;;;;6130948;23;20096;-88
2023/09/16 03:40:15;;;;;;;19.17;12.88;;;12.70;99.90;;;;;;6130790;23;20018;-89
2023/09/16 03:42:43;;;;;;;18.77;13.25;;;12.60;99.90;;;;;;6130202;23;20100;-89
2023/09/16 03:45:15;;;;;;;21.83;13.43;;;11.80;99.90;;;;;;6132388;23;20442;-89
2023/09/16 03:47:59;;;;;;;19.27;13.00;;;11.70;99.90;;;;;;6130884;23;20025;-88
2023/09/16 03:50:46;;;;;;;22.25;14.63;;;12.40;99.90;;;;;;6129696;23;20018;-89
2023/09/16 03:53:15;;;;;;;20.42;13.70;;;11.80;99.90;;;;;;6131273;23;20101;-88
2023/09/16 03:55:40;;;;;;;21.65;14.68;;;11.80;99.90;;;;;;6130221;23;20092;-88
2023/09/16 03:58:06;;;;;;;20.65;13.82;;;11.80;99.90;;;;;;6129659;23;20049;-88
2023/09/16 04:00:41;;;;;;;20.80;13.65;;;11.80;99.90;;;;;;6131246;23;20131;-89
2023/09/16 04:03:07;;;;;;;19.48;13.38;;;11.80;99.90;;;;;;6131137;23;20036;-89
2023/09/16 04:05:54;;;;;;;21.08;13.90;;;11.70;99.90;;;;;;6129827;23;20013;-88
2023/09/16 04:08:20;;;;;;;18.73;13.88;;;11.70;99.90;;;;;;6155645;23;20328;-88
2023/09/16 04:10:52;;;;;;;19.65;13.50;;;11.70;99.90;;;;;;6156148;23;20137;-89
2023/09/16 04:13:18;;;;;;;20.02;14.05;;;12.90;99.90;;;;;;6130790;23;20024;-89
2023/09/16 04:15:54;;;;;;;19.58;13.63;;;12.30;99.90;;;;;;6130206;23;20025;-88
2023/09/16 04:18:23;;;;;;;20.42;13.82;;;12.60;99.90;;;;;;6128690;23;20014;-89
2023/09/16 04:20:55;;;;;;;20.55;14.15;;;12.80;99.90;;;;;;6130324;23;20021;-88
2023/09/16 04:23:26;;;;;;;22.27;15.32;;;11.80;99.90;;;;;;6130479;23;20088;-88
2023/09/16 04:25:56;;;;;;;20.45;14.30;;;12.70;99.90;;;;;;6128810;23;20018;-89
2023/09/16 04:28:23;;;;;;;20.25;14.35;;;12.10;99.90;;;;;;6130274;23;20009;-88
2023/09/16 04:30:52;;;;;;;19.67;15.10;;;11.60;99.90;;;;;;6129023;23;20022;-89
2023/09/16 04:33:21;;;;;;;19.45;14.35;;;12.40;99.90;;;;;;6155459;23;20112;-89
2023/09/16 04:35:52;;;;;;;21.10;14.52;;;12.40;99.90;;;;;;6129501;23;20018;-86
2023/09/16 04:38:33;;;;;;;22.45;15.13;;;12.80;99.90;;;;;;6130509;23;20096;-85
2023/09/16 04:41:05;;;;;;;23.85;15.25;;;11.60;99.90;;;;;;6129950;23;20475;-85
2023/09/16 04:43:31;;;;;;;20.55;14.65;;;11.60;99.90;;;;;;6130275;23;20065;-86
2023/09/16 04:46:03;;;;;;;20.40;14.52;;;11.60;99.90;;;;;;6128829;23;20009;-85
2023/09/16 04:48:45;;;;;;;20.75;15.35;;;12.00;99.90;;;;;;6156069;23;20053;-86
2023/09/16 04:51:14;;;;;;;23.60;16.25;;;11.30;99.90;;;;;;6130044;23;20013;-86
2023/09/16 04:53:46;;;;;;;24.40;17.23;;;11.60;99.90;;;;;;6128820;23;20028;-86
2023/09/16 04:56:24;;;;;;;23.10;16.80;;;11.70;99.90;;;;;;6130659;23;20076;-86
2023/09/16 04:59:08;;;;;;;24.40;15.90;;;11.60;99.90;;;;;;6129653;23;20386;-86
2023/09/16 05:01:52;;;;;;;22.30;14.82;;;11.60;99.90;;;;;;6130327;23;20017;-86
2023/09/16 05:04:27;;;;;;;20.65;13.80;;;11.60;99.90;;;;;;6137941;23;20049;-86
2023/09/16 05:07:19;;;;;;;19.98;14.07;;;12.20;99.90;;;;;;6130059;23;20018;-86
2023/09/16 05:09:50;;;;;;;21.33;14.52;;;11.20;99.90;;;;;;6070994;23;20029;-84
2023/09/16 05:12:28;;;;;;;19.08;14.23;;;12.10;99.90;;;;;;6071950;23;20026;-86
2023/09/16 05:15:12;;;;;;;22.40;14.63;;;11.90;99.90;;;;;;6068618;23;20132;-85
2023/09/16 05:17:56;;;;;;;20.77;14.73;;;11.60;99.90;;;;;;6071024;23;20076;-84
2023/09/16 05:20:37;;;;;;;;;;;11.60;99.90;;;;;;6072584;23;20026;-85
2023/09/16 05:23:09;;;;;;;21.27;14.70;;;11.80;99.90;;;;;;6097454;23;19917;-86
2023/09/16 05:25:51;;;;;;;18.77;14.13;;;11.60;99.90;;;;;;6096753;23;20321;-85
2023/09/16 05:28:23;;;;;;;19.63;13.70;;;12.70;99.90;;;;;;6070495;23;20050;-85
2023/09/16 05:30:56;;;;;;;22.73;14.65;;;11.50;99.90;;;;;;6071140;23;20408;-85
2023/09/16 05:33:25;;;;;;;20.20;14.77;;;12.80;99.90;;;;;;6071534;23;20097;-85
2023/09/16 05:36:00;;;;;;;23.23;15.07;;;12.20;99.90;;;;;;6070086;23;20350;-86
2023/09/16 05:38:26;;;;;;;22.80;15.85;;;12.70;99.90;;;;;;6070355;23;20023;-86
2023/09/16 05:40:59;;;;;;;22.42;14.80;;;12.60;99.90;;;;;;6070870;23;20021;-85
2023/09/16 05:43:31;;;;;;;20.65;14.73;;;11.70;99.90;;;;;;6070842;23;20018;-85
2023/09/16 05:46:12;;;;;;;23.70;15.32;;;11.70;99.90;;;;;;6070922;23;20014;-85
2023/09/16 05:48:56;;;;;;;22.55;15.52;;;13.00;99.90;;;;;;6069551;23;20643;-84
2023/09/16 05:51:39;;;;;;;21.75;15.25;;;11.70;99.90;;;;;;6071263;23;20101;-85
2023/09/16 05:54:17;;;;;;;23.58;15.88;;;12.00;99.90;;;;;;6072695;23;20074;-85
2023/09/16 05:56:53;;;;;;;23.42;15.55;;;13.10;99.90;;;;;;6072543;23;20014;-85
2023/09/16 05:59:20;;;;;;;21.98;15.48;;;11.80;99.90;;;;;;6072166;23;20019;-85
2023/09/16 06:01:46;;;;;;;20.75;14.52;;;13.20;99.90;;;;;;6072168;23;20026;-85
2023/09/16 06:04:12;;;;;;;22.88;16.02;;;11.90;99.90;;;;;;6072678;23;20017;-85
2023/09/16 06:06:43;;;;;;;24.30;16.42;;;13.10;99.90;;;;;;6072868;23;20046;-86
2023/09/16 06:09:15;;;;;;;23.05;16.38;;;11.50;99.90;;;;;;6097295;23;20053;-85
2023/09/16 06:11:44;;;;;;;26.80;16.65;;;13.40;99.90;;;;;;6100802;23;20010;-85
2023/09/16 06:14:28;;;;;;;23.02;16.85;;;12.50;99.90;;;;;;6127395;23;20013;-85
2023/09/16 06:17:12;;;;;;;25.13;17.42;;;11.60;99.90;;;;;;6102059;23;20021;-84
2023/09/16 06:19:54;;;;;;;23.77;17.15;;;12.10;99.90;;;;;;6103369;23;20508;-84
2023/09/16 06:22:25;;;;;;;26.70;17.50;;;12.20;99.90;;;;;;6104001;23;20073;-84
2023/09/16 06:24:51;;;;;;;25.90;17.40;;;12.20;99.90;;;;;;6126725;23;20030;-84
2023/09/16 06:27:18;;;;;;;27.27;17.25;;;12.30;99.90;;;;;;6127730;23;20025;-84
2023/09/16 06:29:44;;;;;;;24.88;17.33;;;12.30;99.90;;;;;;6101532;23;20045;-84
2023/09/16 06:32:10;;;;;;;24.75;17.63;;;12.40;99.90;;;;;;6101908;23;20014;-84
2023/09/16 06:34:36;;;;;;;24.95;18.25;;;12.80;99.90;;;;;;6101358;23;20443;-86
2023/09/16 06:37:05;;;;;;;27.83;18.20;;;13.20;99.90;;;;;;6099227;23;20020;-84
2023/09/16 06:39:31;;;;;;;24.73;18.05;;;12.60;99.90;;;;;;6101294;23;20443;-85
2023/09/16 06:41:56;;;;;;;27.30;18.10;;;12.60;99.90;;;;;;6102338;23;20018;-85
2023/09/16 06:47:42;;;;;;;27.80;19.35;;;12.70;99.90;;;;;;6124901;23;20013;-86
2023/09/16 06:50:15;;;;;;;29.67;20.13;;;12.80;99.90;;;;;;6106340;23;20072;-85
2023/09/16 06:52:50;;;;;;;26.42;18.98;;;14.20;99.90;;;;;;6102302;23;20097;-85
2023/09/16 06:55:31;;;;;;;30.80;20.73;;;13.10;99.90;;;;;;6102554;23;20037;-85
2023/09/16 06:58:04;;;;;;;29.92;21.00;;;13.20;99.90;;;;;;6101918;23;20029;-86
2023/09/16 07:00:33;;;;;;;30.77;21.60;;;13.30;99.90;;;;;;6102722;23;20014;-85
2023/09/16 07:03:05;;;;;;;30.38;20.63;;;14.60;99.90;;;;;;6102869;23;20022;-86
2023/09/16 07:05:37;;;;;;;28.20;21.25;;;13.50;99.90;;;;;;6103515;23;20064;-85
2023/09/16 07:08:03;;;;;;;29.02;21.42;;;14.80;99.90;;;;;;6102034;23;20022;-86
2023/09/16 07:10:54;;;;;;;28.33;20.98;;;13.70;99.90;;;;;;6104466;23;20387;-86
2023/09/16 07:13:26;;;;;;;28.90;19.38;;;13.90;99.90;;;;;;6104386;23;20018;-86
2023/09/16 07:15:56;;;;;;;27.63;19.98;;;14.70;99.90;;;;;;6106430;23;20018;-87
2023/09/16 07:18:27;;;;;;;25.08;18.35;;;14.90;99.90;;;;;;6106373;23;20045;-85
2023/09/16 07:20:53;;;;;;;27.85;19.42;;;14.70;99.90;;;;;;6104839;23;20870;-85
2023/09/16 07:23:23;;;;;;;24.92;19.42;;;14.40;99.90;;;;;;6101594;23;20020;-87
2023/09/16 07:26:07;;;;;;;26.65;18.70;;;14.50;99.90;;;;;;6101192;23;20014;-85
2023/09/16 07:28:39;;;;;;;25.67;18.73;;;14.60;99.90;;;;;;6099217;23;20054;-84
2023/09/16 07:31:05;;;;;;;24.90;17.73;;;15.90;99.90;;;;;;6100028;23;20024;-85
2023/09/16 07:33:37;;;;;;;25.98;18.13;;;14.90;99.90;;;;;;6100112;23;20116;-84
2023/09/16 07:36:12;;;;;;;25.42;18.25;;;15.00;99.90;;;;;;6098374;23;20053;-85
2023/09/16 07:38:53;;;;;;;23.42;16.98;;;15.00;99.90;;;;;;6099023;23;20336;-86
2023/09/16 07:41:25;;;;;;;25.38;17.48;;;15.20;99.90;;;;;;6095271;23;20459;-85
2023/09/16 07:43:56;;;;;;;23.60;17.38;;;15.90;99.90;;;;;;6100224;23;20018;-87
2023/09/16 07:46:22;;;;;;;22.92;16.17;;;15.30;99.90;;;;;;6100682;23;20068;-85
2023/09/16 07:48:57;;;;;;;22.25;16.27;;;15.30;99.90;;;;;;6099801;23;20093;-85
2023/09/16 07:51:22;;;;;;;22.15;16.55;;;15.40;99.90;;;;;;6100289;23;20045;-86
2023/09/16 07:53:48;;;;;;;24.30;17.67;;;15.50;99.90;;;;;;6145522;23;20382;-87
2023/09/16 07:56:39;;;;;;;22.75;16.70;;;15.60;99.90;;;;;;6158618;23;20025;-86
2023/09/16 07:59:04;;;;;;;20.55;15.30;;;15.70;99.90;;;;;;6159251;23;20171;-86
2023/09/16 08:01:30;;;;;;;22.70;15.75;;;15.70;99.90;;;;;;6161807;23;20508;-86
2023/09/16 08:04:08;;;;;;;21.63;15.60;;;16.00;99.90;;;;;;6159166;23;20092;-85
2023/09/16 08:06:34;;;;;;;22.08;15.57;;;15.90;99.90;;;;;;6159254;23;20017;-86
2023/09/16 08:09:07;;;;;;;21.00;15.23;;;16.00;99.90;;;;;;6160105;23;20035;-84
2023/09/16 08:11:32;;;;;;;22.08;14.98;;;16.00;99.90;;;;;;6158517;23;20017;-84
2023/09/16 08:14:07;;;;;;;20.88;14.27;;;16.10;99.90;;;;;;6159203;23;20350;-84
2023/09/16 08:16:36;;;;;;;19.42;14.45;;;16.10;99.90;;;;;;6159438;23;20342;-84
2023/09/16 08:19:01;;;;;;;20.40;15.40;;;16.10;99.90;;;;;;6159182;23;20312;-83
2023/09/16 08:21:27;;;;;;;20.20;14.82;;;16.10;99.90;;;;;;6159277;23;20116;-84
2023/09/16 08:23:52;;;;;;;21.85;14.35;;;16.40;99.90;;;;;;6158341;23;20009;-83
2023/09/16 08:26:18;;;;;;;20.60;14.75;;;16.30;99.90;;;;;;6159870;23;20017;-84
2023/09/16 08:28:44;;;;;;;19.83;14.88;;;16.30;99.90;;;;;;6159237;23;20511;-83
2023/09/16 08:31:09;;;;;;;19.67;14.52;;;16.30;99.90;;;;;;6185205;23;20032;-84
2023/09/16 08:33:35;;;;;;;23.00;15.23;;;16.10;99.90;;;;;;6185695;23;20061;-84
2023/09/16 08:36:00;;;;;;;21.85;15.77;;;16.20;99.90;;;;;;6159346;23;20020;-84
2023/09/16 08:38:26;;;;;;;20.52;16.05;;;16.20;99.90;;;;;;6158979;23;20017;-84
2023/09/16 08:41:00;;;;;;;21.77;14.77;;;16.20;99.90;;;;;;6159110;23;20013;-84
2023/09/16 08:43:36;;;;;;;21.33;15.32;;;16.30;99.90;;;;;;6159732;23;20013;-84
2023/09/16 08:46:10;;;;;;;20.75;15.63;;;16.40;99.90;;;;;;6158490;23;20597;-84
2023/09/16 08:48:44;;;;;;;21.40;14.27;;;16.90;99.90;;;;;;6159149;23;20009;-84
2023/09/16 08:51:13;;;;;;;20.08;14.73;;;16.60;99.90;;;;;;6159423;23;20017;-84
2023/09/16 08:53:44;;;;;;;19.40;13.48;;;16.60;99.90;;;;;;6157751;23;20080;-84
2023/09/16 08:56:10;;;;;;;20.73;14.48;;;16.70;99.90;;;;;;6159249;23;20106;-84
2023/09/16 08:58:36;;;;;;;16.55;12.52;;;16.80;99.90;;;;;;6159207;23;20326;-84
2023/09/16 09:01:03;;;;;;;17.63;12.35;;;16.90;99.90;;;;;;6158502;23;20021;-84
2023/09/16 09:03:32;;;;;;;18.65;12.50;;;17.00;99.90;;;;;;6159277;23;20446;-84
2023/09/16 09:05:58;;;;;;;18.50;13.25;;;17.10;99.90;;;;;;6157956;23;20017;-84
2023/09/16 09:08:39;;;;;;;18.55;12.30;;;17.10;99.90;;;;;;6159773;23;20083;-84
2023/09/16 09:11:10;;;;;;;18.35;13.07;;;17.20;99.90;;;;;;6159480;23;20151;-84
2023/09/16 09:13:52;;;;;;;19.08;12.95;;;17.40;99.90;;;;;;6153917;23;20032;-84
2023/09/16 09:16:35;;;;;;;16.77;12.98;;;17.50;99.90;;;;;;6159183;23;20045;-84
2023/09/16 09:19:02;;;;;;;18.45;12.57;;;17.70;99.90;;;;;;6159831;23;20082;-84
2023/09/16 09:21:37;;;;;;;19.30;13.27;;;18.00;99.90;;;;;;6157900;23;20024;-84
2023/09/16 09:24:14;;;;;;;18.15;12.13;;;18.20;99.90;;;;;;6158963;23;20013;-84
2023/09/16 09:26:40;;;;;;;15.00;10.82;;;18.20;99.90;;;;;;6158902;23;20092;-84
2023/09/16 09:29:09;;;;;;;15.70;10.90;;;18.60;99.90;;;;;;6158269;23;20107;-85
2023/09/16 09:32:29;;;;;;;16.35;11.43;;;18.80;99.90;;;;;;6184368;23;20021;-84
2023/09/16 09:35:07;;;;;;;15.90;11.63;;;18.90;99.90;;;;;;6157793;23;20013;-84
2023/09/16 09:37:53;;;;;;;15.93;10.55;;;19.20;99.90;;;;;;6159123;23;20013;-84
2023/09/16 09:40:34;;;;;;;15.75;10.70;;;19.40;99.90;;;;;;6158173;23;20419;-85
2023/09/16 09:43:00;;;;;;;17.10;11.18;;;19.70;99.90;;;;;;6158192;23;20017;-84
2023/09/16 09:45:51;;;;;;;14.20;9.85;;;19.90;99.90;;;;;;6158228;23;20148;-84
2023/09/16 09:48:16;;;;;;;15.27;10.20;;;20.00;99.90;;;;;;6157284;23;20021;-84
2023/09/16 09:50:54;;;;;;;16.02;10.00;;;20.00;99.90;;;;;;6157538;23;20017;-84
2023/09/16 09:53:22;;;;;;;14.30;10.35;;;19.90;99.90;;;;;;6153026;23;20020;-84
2023/09/16 09:55:52;;;;;;;15.18;10.40;;;19.90;99.90;;;;;;6152675;23;20100;-84
2023/09/16 09:58:18;;;;;;;17.88;11.13;;;19.90;99.90;;;;;;6153751;23;20017;-84
2023/09/16 10:00:49;;;;;;;15.88;11.05;;;19.90;99.90;;;;;;6153598;23;20009;-84
2023/09/16 10:03:17;;;;;;;17.63;12.20;;;20.00;99.90;;;;;;6152863;23;20021;-84
2023/09/16 10:05:43;;;;;;;18.30;12.27;;;20.00;99.90;;;;;;6153139;23;20013;-84
2023/09/16 10:08:10;;;;;;;16.40;11.82;;;20.10;99.90;;;;;;6153828;23;20332;-84
2023/09/16 10:10:36;;;;;;;17.15;11.82;;;20.30;99.90;;;;;;6152472;23;20028;-85
2023/09/16 10:13:02;;;;;;;15.95;10.90;;;20.50;99.90;;;;;;6153770;23;20022;-84
2023/09/16 10:15:39;;;;;;;15.98;10.43;;;20.80;99.90;;;;;;6153792;23;20018;-85
2023/09/16 10:18:06;;;;;;;16.98;10.05;;;20.90;99.90;;;;;;6152676;23;20018;-84
2023/09/16 10:20:38;;;;;;;17.45;10.23;;;21.00;99.90;;;;;;6153420;23;20053;-85
2023/09/16 10:23:04;;;;;;;14.48;10.18;;;21.10;99.90;;;;;;6153222;23;20334;-85
2023/09/16 10:30:26;;;;;;;16.85;9.82;;;21.10;99.90;;;;;;6182201;23;20052;-85
2023/09/16 10:32:53;;;;;;;15.88;10.50;;;21.40;99.90;;;;;;6067737;23;20018;-84
2023/09/16 10:43:07;;;;;;;17.08;11.80;;;21.80;99.90;;;;;;5901074;24;20028;-85
2023/09/16 11:05:34;;;;;;;16.00;9.70;;;23.40;99.90;;;;;;6200963;23;20376;-84
2023/09/16 11:26:49;;;;;;;14.70;8.88;;;23.90;99.90;;;;;;6125492;23;20021;-85
2023/09/16 11:29:23;;;;;;;14.45;8.65;;;24.60;99.90;;;;;;6123863;23;20160;-86
2023/09/16 11:31:54;;;;;;;13.75;8.63;;;24.60;99.90;;;;;;6191061;23;20016;-85
2023/09/16 11:34:35;;;;;;;14.93;8.00;;;24.60;99.90;;;;;;6191486;23;20104;-85
2023/09/16 11:37:01;;;;;;;14.80;6.25;;;24.90;99.90;;;;;;6193479;23;20017;-85
2023/09/16 11:39:35;;;;;;;10.93;5.72;;;24.90;99.90;;;;;;6193358;23;20020;-85
2023/09/16 11:42:12;;;;;;;12.50;6.70;;;24.80;99.90;;;;;;6190362;23;20020;-85
2023/09/16 11:44:47;;;;;;;13.80;6.75;;;24.70;99.90;;;;;;6191909;23;20087;-85
2023/09/16 11:47:14;;;;;;;13.77;7.38;;;24.40;99.90;;;;;;6191369;23;20021;-85
2023/09/16 11:50:25;;;;;;;9.88;5.47;;;24.50;99.90;;;;;;6189085;23;20051;-85
2023/09/16 11:52:54;;;;;;;10.25;6.20;;;24.30;99.90;;;;;;6146558;23;20024;-84
2023/09/16 11:55:58;;;;;;;10.60;5.80;;;24.30;99.90;;;;;;6189474;23;20398;-85
2023/09/16 11:58:25;;;;;;;9.63;5.05;;;24.20;99.90;;;;;;6187594;23;20017;-85
2023/09/16 12:00:51;;;;;;;10.98;5.15;;;24.20;99.90;;;;;;6191396;23;20020;-85
2023/09/16 12:06:20;;;;;;;10.55;5.55;;;24.50;99.90;;;;;;6072190;23;20037;-85
2023/09/16 12:08:53;;;;;;;10.40;5.15;;;24.30;99.90;;;;;;6183594;23;20023;-85
2023/09/16 12:11:19;;;;;;;11.68;5.50;;;24.40;99.90;;;;;;6190098;23;20023;-85
2023/09/16 12:13:51;;;;;;;12.13;6.05;;;24.60;99.90;;;;;;6189168;23;20008;-85
2023/09/16 12:16:17;;;;;;;10.52;6.07;;;24.50;99.90;;;;;;6190042;23;20059;-85
2023/09/16 12:18:43;;;;;;;11.52;5.20;;;24.50;99.90;;;;;;6189744;23;20017;-85
2023/09/16 12:21:10;;;;;;;10.32;5.63;;;24.70;99.90;;;;;;6189778;23;20099;-85
2023/09/16 12:23:36;;;;;;;10.63;6.03;;;24.90;99.90;;;;;;6188607;23;20071;-85
2023/09/16 12:26:02;;;;;;;10.60;5.22;;;25.10;99.90;;;;;;6189849;23;20337;-85
2023/09/16 12:28:27;;;;;;;10.52;4.88;;;25.20;99.90;;;;;;6190627;23;20021;-85
2023/09/16 12:30:57;;;;;;;10.25;5.28;;;25.50;99.90;;;;;;6188651;23;20048;-86
2023/09/16 12:33:43;;;;;;;9.77;5.32;;;25.90;99.90;;;;;;6189849;23;20008;-85
2023/09/16 12:36:18;;;;;;;10.23;4.78;;;26.00;99.90;;;;;;6190985;23;20043;-85
2023/09/16 12:38:45;;;;;;;10.93;4.85;;;26.00;99.90;;;;;;6188960;23;20043;-85
2023/09/16 12:41:14;;;;;;;9.63;4.97;;;26.00;99.90;;;;;;6189719;23;20020;-85
2023/09/16 12:43:42;;;;;;;9.02;4.50;;;26.20;99.90;;;;;;6188755;23;20023;-85
2023/09/16 12:46:27;;;;;;;9.57;4.85;;;26.20;99.90;;;;;;6189141;23;20099;-86
2023/09/16 12:48:56;;;;;;;10.60;4.90;;;26.30;99.90;;;;;;6189102;23;20017;-85
2023/09/16 12:51:23;;;;;;;8.98;4.47;;;26.50;99.90;;;;;;6186921;23;20023;-85
2023/09/16 12:53:53;;;;;;;10.45;5.00;;;26.60;99.90;;;;;;6189252;23;20023;-85
2023/09/16 12:56:18;;;;;;;10.57;4.95;;;26.70;99.90;;;;;;6189604;23;20035;-85
2023/09/16 12:58:48;;;;;;;10.20;5.53;;;26.70;99.90;;;;;;6187916;23;20509;-85
2023/09/16 13:01:18;;;;;;;9.82;5.20;;;26.70;99.90;;;;;;6190289;23;20009;-85
2023/09/16 13:03:44;;;;;;;9.98;4.90;;;26.70;99.90;;;;;;6190323;23;20054;-85
2023/09/16 13:06:10;;;;;;;9.73;4.30;;;26.70;99.90;;;;;;6188296;23;20020;-85
2023/09/16 13:08:36;;;;;;;11.38;4.68;;;26.60;99.90;;;;;;6188178;23;20024;-85
2023/09/16 13:11:02;;;;;;;9.20;4.47;;;26.90;99.90;;;;;;6188787;23;20373;-85
2023/09/16 13:13:30;;;;;;;10.43;5.25;;;26.80;99.90;;;;;;6188191;23;20024;-85
2023/09/16 13:16:00;;;;;;;8.85;4.53;;;27.00;99.90;;;;;;6188680;23;20031;-85
2023/09/16 13:18:36;;;;;;;9.27;5.05;;;27.10;99.90;;;;;;6188990;23;20051;-85
2023/09/16 13:21:05;;;;;;;10.30;4.10;;;27.20;99.50;;;;;;6189076;23;20026;-85
2023/09/16 13:24:03;;;;;;;9.10;4.32;;;27.30;99.90;;;;;;6189050;23;20050;-85
2023/09/16 13:26:35;;;;;;;10.43;4.50;;;27.30;99.80;;;;;;6188759;23;20091;-85
2023/09/16 13:29:04;;;;;;;9.93;4.63;;;27.20;99.90;;;;;;6189605;23;20095;-85
2023/09/16 13:31:33;;;;;;;9.27;4.30;;;27.30;98.80;;;;;;6189676;23;20024;-85
2023/09/16 13:34:05;;;;;;;10.63;4.72;;;27.30;99.30;;;;;;6188601;23;20024;-85
2023/09/16 13:36:38;;;;;;;10.10;4.60;;;27.30;99.40;;;;;;6189468;23;20009;-85
2023/09/16 13:39:04;;;;;;;10.68;4.70;;;27.10;99.70;;;;;;6196768;23;20020;-86
2023/09/16 13:41:33;;;;;;;9.35;5.00;;;27.00;99.90;;;;;;6220534;23;20096;-85
2023/09/16 13:44:01;;;;;;;9.20;4.47;;;27.00;99.90;;;;;;6188779;23;20012;-85
2023/09/16 13:46:28;;;;;;;9.93;4.40;;;27.10;99.90;;;;;;6188704;23;20148;-85
2023/09/16 13:48:55;;;;;;;10.27;4.70;;;27.40;99.90;;;;;;6187561;23;20547;-85
2023/09/16 13:51:21;;;;;;;9.70;4.47;;;27.40;99.80;;;;;;6188829;23;20013;-85
2023/09/16 13:53:47;;;;;;;9.65;4.53;;;27.40;99.70;;;;;;6188480;23;20032;-85
2023/09/16 13:56:13;;;;;;;8.93;4.15;;;27.40;99.80;;;;;;6214571;23;20461;-85
2023/09/16 13:58:40;;;;;;;9.63;4.20;;;27.30;99.40;;;;;;6188196;23;20463;-86
2023/09/16 14:01:06;;;;;;;7.88;3.60;;;27.10;99.30;;;;;;6188128;23;20021;-86
2023/09/16 14:03:33;;;;;;;8.68;3.65;;;26.90;99.30;;;;;;6188974;23;20040;-84